Pacific Beryl — 9V9809 — position and weather

sailwx.info

Track history (hours):
 
Tides and Currents Weather Stations Pressure Air Temp Water Temp Dewpoint Dewpoint Depression Visibility Wind Speed Wind Dir Waves Ship Positions

Pacific Beryl

Last reported at 2018-Jan-26 18:20 UTC. Time now 2018-Feb-19 14:28 UTC.
Position N 27°24' W 096°15'.
Warning: this ship's position is 23 days out of date.

Length 182 m; draft 10.7 m.

Type: Tanker. MMSI: 566366000.

Date/timePositionNaut miles runAvg speedWind from/ knotsBaromVisibWave heightAir tempDewpointWater temp
2018-Jan-26 18:20N 27°24' W 096°15'512.7
2018-Jan-26 17:59N 27°27' W 096°19'612.8
2018-Jan-26 17:29N 27°29' W 096°25'612.8
2018-Jan-26 16:59N 27°32' W 096°32'612.5
2018-Jan-26 16:30N 27°35' W 096°38'612.2
2018-Jan-26 15:59N 27°38' W 096°44'611.8
2018-Jan-26 15:27N 27°42' W 096°50'511.8
2018-Jan-26 15:00N 27°45' W 096°55'510.0
2018-Jan-26 14:30N 27°48' W 096°59'5 9.0
2018-Jan-26 13:59N 27°51' W 097°04'510.1
2018-Jan-26 13:29N 27°50' W 097°09'17 0.8
2018-Jan-25 14:30N 27°49' W 097°29'0 0.0
2018-Jan-25 13:57N 27°49' W 097°29'0 0.0
2018-Jan-24 13:57N 27°49' W 097°29'0 0.0
2018-Jan-24 12:30N 27°49' W 097°29'0 0.0
2018-Jan-24 11:54N 27°49' W 097°29'0 0.0
2018-Jan-24 11:30N 27°49' W 097°29'0 0.0
2018-Jan-24 11:00N 27°49' W 097°29'0 0.0
2018-Jan-24 10:30N 27°49' W 097°29'0 0.0
2018-Jan-24 10:00N 27°49' W 097°29'0 0.0
2018-Jan-24 09:30N 27°49' W 097°29'0 0.0
2018-Jan-24 08:54N 27°49' W 097°29'0 0.0
2018-Jan-24 05:57N 27°49' W 097°29'0 0.0
2018-Jan-24 05:30N 27°49' W 097°29'0 0.0
2018-Jan-23 23:12N 27°49' W 097°29'0 0.0
2018-Jan-23 23:00N 27°49' W 097°29'0 0.0
2018-Jan-23 18:18N 27°49' W 097°29'0 0.0
2018-Jan-23 17:48N 27°49' W 097°29'0 0.0
2018-Jan-23 17:30N 27°49' W 097°29'0 0.0
2018-Jan-23 17:00N 27°49' W 097°29'0 0.0
2018-Jan-23 16:30N 27°49' W 097°29'0 0.0
2018-Jan-23 16:00N 27°49' W 097°29'0 0.0
2018-Jan-23 15:30N 27°49' W 097°29'0 0.0
2018-Jan-23 14:57N 27°49' W 097°29'0 0.0
2018-Jan-23 14:30N 27°49' W 097°29'0 0.0
2018-Jan-23 13:57N 27°49' W 097°29'0 0.0
2018-Jan-23 13:30N 27°49' W 097°29'0 0.0
2018-Jan-23 12:48N 27°49' W 097°29'0 0.0
2018-Jan-23 12:30N 27°49' W 097°29'0 0.0
2018-Jan-23 12:00N 27°49' W 097°29'0 0.0
2018-Jan-23 11:30N 27°49' W 097°29'0 0.0
2018-Jan-22 19:54N 27°49' W 097°29'0 0.6
2018-Jan-22 19:27N 27°49' W 097°29'1 1.5
2018-Jan-22 19:00N 27°49' W 097°28'3 5.2
2018-Jan-22 18:29N 27°49' W 097°25'4 7.8
2018-Jan-22 18:00N 27°49' W 097°21'612.1
2018-Jan-22 17:30N 27°49' W 097°14'611.0
2018-Jan-22 16:59N 27°50' W 097°08'5 9.9
2018-Jan-22 16:29N 27°50' W 097°02'510.3
2018-Jan-22 16:00N 27°48' W 096°57'3 5.5
2018-Jan-22 15:28N 27°46' W 096°54'2 3.3
2018-Jan-22 15:00N 27°46' W 096°53'3 5.2
2018-Jan-22 14:30N 27°45' W 096°50'3 4.7
2018-Jan-22 13:58N 27°44' W 096°48'3 6.4
2018-Jan-22 13:29N 27°43' W 096°44'5 9.1
2018-Jan-22 12:59N 27°41' W 096°40'4 8.3
2018-Jan-22 12:30N 27°38' W 096°36'4 7.6
2018-Jan-22 12:00N 27°36' W 096°32'5 9.2
2018-Jan-22 11:30N 27°34' W 096°28'612.7
2018-Jan-22 10:59N 27°31' W 096°21'712.9
2018-Jan-22 10:26N 27°27' W 096°14'  
Track history (hours):
 
Tides and Currents Weather Stations Pressure Air Temp Water Temp Dewpoint Dewpoint Depression Visibility Wind Speed Wind Dir Waves Ship Positions

Pacific Beryl

Last reported at 2018-Jan-26 18:20 UTC. Time now 2018-Feb-19 14:28 UTC.
Position N 27°24' W 096°15'.
Warning: this ship's position is 23 days out of date.

Length 182 m; draft 10.7 m.

Type: Tanker. MMSI: 566366000.

Date/timePositionNaut miles runAvg speedWind from/ knotsBaromVisibWave heightAir tempDewpointWater temp
2018-Jan-26 18:20N 27°24' W 096°15'512.7
2018-Jan-26 17:59N 27°27' W 096°19'612.8
2018-Jan-26 17:29N 27°29' W 096°25'612.8
2018-Jan-26 16:59N 27°32' W 096°32'612.5
2018-Jan-26 16:30N 27°35' W 096°38'612.2
2018-Jan-26 15:59N 27°38' W 096°44'611.8
2018-Jan-26 15:27N 27°42' W 096°50'511.8
2018-Jan-26 15:00N 27°45' W 096°55'510.0
2018-Jan-26 14:30N 27°48' W 096°59'5 9.0
2018-Jan-26 13:59N 27°51' W 097°04'510.1
2018-Jan-26 13:29N 27°50' W 097°09'17 0.8
2018-Jan-25 14:30N 27°49' W 097°29'0 0.0
2018-Jan-25 13:57N 27°49' W 097°29'0 0.0
2018-Jan-24 13:57N 27°49' W 097°29'0 0.0
2018-Jan-24 12:30N 27°49' W 097°29'0 0.0
2018-Jan-24 11:54N 27°49' W 097°29'0 0.0
2018-Jan-24 11:30N 27°49' W 097°29'0 0.0
2018-Jan-24 11:00N 27°49' W 097°29'0 0.0
2018-Jan-24 10:30N 27°49' W 097°29'0 0.0
2018-Jan-24 10:00N 27°49' W 097°29'0 0.0
2018-Jan-24 09:30N 27°49' W 097°29'0 0.0
2018-Jan-24 08:54N 27°49' W 097°29'0 0.0
2018-Jan-24 05:57N 27°49' W 097°29'0 0.0
2018-Jan-24 05:30N 27°49' W 097°29'0 0.0
2018-Jan-23 23:12N 27°49' W 097°29'0 0.0
2018-Jan-23 23:00N 27°49' W 097°29'0 0.0
2018-Jan-23 18:18N 27°49' W 097°29'0 0.0
2018-Jan-23 17:48N 27°49' W 097°29'0 0.0
2018-Jan-23 17:30N 27°49' W 097°29'0 0.0
2018-Jan-23 17:00N 27°49' W 097°29'0 0.0
2018-Jan-23 16:30N 27°49' W 097°29'0 0.0
2018-Jan-23 16:00N 27°49' W 097°29'0 0.0
2018-Jan-23 15:30N 27°49' W 097°29'0 0.0
2018-Jan-23 14:57N 27°49' W 097°29'0 0.0
2018-Jan-23 14:30N 27°49' W 097°29'0 0.0
2018-Jan-23 13:57N 27°49' W 097°29'0 0.0
2018-Jan-23 13:30N 27°49' W 097°29'0 0.0
2018-Jan-23 12:48N 27°49' W 097°29'0 0.0
2018-Jan-23 12:30N 27°49' W 097°29'0 0.0
2018-Jan-23 12:00N 27°49' W 097°29'0 0.0
2018-Jan-23 11:30N 27°49' W 097°29'0 0.0
2018-Jan-22 19:54N 27°49' W 097°29'0 0.6
2018-Jan-22 19:27N 27°49' W 097°29'1 1.5
2018-Jan-22 19:00N 27°49' W 097°28'3 5.2
2018-Jan-22 18:29N 27°49' W 097°25'4 7.8
2018-Jan-22 18:00N 27°49' W 097°21'612.1
2018-Jan-22 17:30N 27°49' W 097°14'611.0
2018-Jan-22 16:59N 27°50' W 097°08'5 9.9
2018-Jan-22 16:29N 27°50' W 097°02'510.3
2018-Jan-22 16:00N 27°48' W 096°57'3 5.5
2018-Jan-22 15:28N 27°46' W 096°54'2 3.3
2018-Jan-22 15:00N 27°46' W 096°53'3 5.2
2018-Jan-22 14:30N 27°45' W 096°50'3 4.7
2018-Jan-22 13:58N 27°44' W 096°48'3 6.4
2018-Jan-22 13:29N 27°43' W 096°44'5 9.1
2018-Jan-22 12:59N 27°41' W 096°40'4 8.3
2018-Jan-22 12:30N 27°38' W 096°36'4 7.6
2018-Jan-22 12:00N 27°36' W 096°32'5 9.2
2018-Jan-22 11:30N 27°34' W 096°28'612.7
2018-Jan-22 10:59N 27°31' W 096°21'712.9
2018-Jan-22 10:26N 27°27' W 096°14'  

Dump ship's entire track history